Time;durP1;ratioP1;P1;durP2;ratioP2;P2;SDS_P1;SDS_P2;PMS_P1;PMS_P2;Temp;Humidity;BMP_temperature;BMP_pressure;BME280_temperature;BME280_humidity;BME280_pressure;Samples;Min_cycle;Max_cycle;Signal;HPM_P1;HPM_P2
2022/09/01 00:01:36;;;;;;;2.40;1.60;;;13.80;99.90;;;;;;5091000;28;20020;-53
2022/09/01 00:04:03;;;;;;;2.38;1.58;;;13.70;99.90;;;;;;5084452;28;20027;-53
2022/09/01 00:06:31;;;;;;;4.00;1.45;;;13.70;99.90;;;;;;5081498;28;20027;-53
2022/09/01 00:09:00;;;;;;;3.10;1.73;;;13.60;99.90;;;;;;5091351;28;20063;-53
2022/09/01 00:11:27;;;;;;;3.13;1.67;;;13.60;99.90;;;;;;5088934;28;20209;-53
2022/09/01 00:13:53;;;;;;;1.95;1.45;;;13.60;99.90;;;;;;5091104;28;20470;-53
2022/09/01 00:16:20;;;;;;;2.22;1.35;;;13.60;99.90;;;;;;5091369;28;20410;-52
2022/09/01 00:18:49;;;;;;;2.38;1.40;;;13.60;99.90;;;;;;5090712;28;20468;-52
2022/09/01 00:21:17;;;;;;;1.63;1.25;;;13.60;99.90;;;;;;5090405;28;20028;-53
2022/09/01 00:23:42;;;;;;;2.70;1.50;;;13.50;99.90;;;;;;5091249;28;20046;-53
2022/09/01 00:26:08;;;;;;;2.85;1.88;;;13.50;99.90;;;;;;5091106;28;20040;-51
2022/09/01 00:28:35;;;;;;;2.65;1.60;;;13.50;99.90;;;;;;5090860;28;20031;-53
2022/09/01 00:31:02;;;;;;;2.30;1.73;;;13.50;99.90;;;;;;5089926;28;20036;-52
2022/09/01 00:33:28;;;;;;;3.60;1.30;;;13.50;99.90;;;;;;5078658;28;20021;-54
2022/09/01 00:35:55;;;;;;;3.58;1.27;;;13.50;99.90;;;;;;5082197;28;20490;-53
2022/09/01 00:38:20;;;;;;;1.92;1.52;;;13.50;99.90;;;;;;5090734;28;20054;-53
2022/09/01 00:40:46;;;;;;;1.88;1.55;;;13.40;99.90;;;;;;5089948;28;20028;-52
2022/09/01 00:43:21;;;;;;;2.30;1.50;;;13.40;99.90;;;;;;5090628;28;20024;-53
2022/09/01 00:45:48;;;;;;;2.67;1.27;;;13.40;99.90;;;;;;5090608;28;20024;-52
2022/09/01 00:48:14;;;;;;;2.10;1.60;;;13.40;99.90;;;;;;5090123;28;20166;-53
2022/09/01 00:50:41;;;;;;;1.75;1.50;;;13.30;99.90;;;;;;5089691;28;20498;-52
2022/09/01 00:53:08;;;;;;;1.73;1.20;;;13.30;99.90;;;;;;5090275;28;20536;-52
2022/09/01 00:55:37;;;;;;;1.60;1.50;;;13.30;99.90;;;;;;5090270;28;20036;-51
2022/09/01 00:58:05;;;;;;;6.85;1.70;;;13.30;99.90;;;;;;5090073;28;20035;-52
2022/09/01 01:00:32;;;;;;;1.42;1.30;;;13.30;99.90;;;;;;5088749;28;20129;-52
2022/09/01 01:02:57;;;;;;;1.77;1.25;;;13.20;99.90;;;;;;5087491;28;20032;-52
2022/09/01 01:05:32;;;;;;;1.60;1.50;;;13.20;99.90;;;;;;5079534;28;20503;-53
2022/09/01 01:08:00;;;;;;;1.77;1.40;;;13.20;99.90;;;;;;5090200;28;20028;-52
2022/09/01 01:10:31;;;;;;;3.80;1.60;;;13.30;99.90;;;;;;5085169;28;20024;-52
2022/09/01 01:13:00;;;;;;;;;;;13.30;99.90;;;;;;5071462;28;20071;-52
2022/09/01 01:15:27;;;;;;;2.97;1.30;;;13.30;99.90;;;;;;5069961;28;19936;-51
2022/09/01 01:17:52;;;;;;;1.45;1.35;;;13.20;99.90;;;;;;5078767;28;20021;-54
2022/09/01 01:23:23;;;;;;;1.40;1.30;;;13.20;99.90;;;;;;5090003;28;20448;-52
2022/09/01 01:25:53;;;;;;;2.00;1.45;;;13.20;99.90;;;;;;5089919;28;20056;-52
2022/09/01 01:28:24;;;;;;;1.67;1.30;;;13.20;99.90;;;;;;5089907;28;20491;-52
2022/09/01 01:30:53;;;;;;;3.63;1.42;;;13.20;99.90;;;;;;5088774;28;20457;-52
2022/09/01 01:33:21;;;;;;;2.17;1.20;;;13.20;99.90;;;;;;5089487;28;20055;-52
2022/09/01 01:35:47;;;;;;;2.78;1.40;;;13.20;99.90;;;;;;5089547;28;20123;-53
2022/09/01 01:38:14;;;;;;;2.03;1.48;;;13.20;99.90;;;;;;5089404;28;20031;-53
2022/09/01 01:40:40;;;;;;;1.88;1.38;;;13.20;99.90;;;;;;5088889;28;20106;-53
2022/09/01 01:43:06;;;;;;;2.25;1.67;;;13.20;99.90;;;;;;5089314;28;20186;-53
2022/09/01 01:45:32;;;;;;;1.92;1.50;;;13.20;99.90;;;;;;5088073;28;20034;-53
2022/09/01 01:47:59;;;;;;;1.70;1.40;;;13.20;99.90;;;;;;5078498;28;20541;-53
2022/09/01 01:50:34;;;;;;;3.38;1.45;;;13.10;99.90;;;;;;5087635;28;20031;-53
2022/09/01 01:53:01;;;;;;;2.28;1.30;;;13.10;99.90;;;;;;5089149;28;20024;-53
2022/09/01 01:55:29;;;;;;;1.77;1.38;;;13.10;99.90;;;;;;5089418;28;20024;-53
2022/09/01 01:57:55;;;;;;;2.22;1.40;;;13.10;99.90;;;;;;5089301;28;20016;-53
2022/09/01 02:00:29;;;;;;;1.70;1.48;;;13.10;99.90;;;;;;5089569;28;20082;-53
2022/09/01 02:02:54;;;;;;;2.45;1.60;;;13.10;99.90;;;;;;5088960;28;20566;-53
2022/09/01 02:05:23;;;;;;;2.15;1.60;;;13.10;99.90;;;;;;5089517;28;20125;-53
2022/09/01 02:07:54;;;;;;;3.13;1.58;;;13.10;99.90;;;;;;5087698;28;20020;-53
2022/09/01 02:10:24;;;;;;;1.48;1.33;;;13.10;99.90;;;;;;5088900;28;20028;-53
2022/09/01 02:12:50;;;;;;;2.13;1.90;;;13.10;99.90;;;;;;5088377;28;20475;-53
2022/09/01 02:15:16;;;;;;;2.88;1.65;;;13.10;99.90;;;;;;5089273;28;20322;-53
2022/09/01 02:17:42;;;;;;;4.63;1.58;;;13.10;99.90;;;;;;5080553;28;20241;-53
2022/09/01 02:20:09;;;;;;;3.30;1.50;;;13.00;99.90;;;;;;5083492;28;20506;-53
2022/09/01 02:22:36;;;;;;;2.53;1.58;;;13.10;99.90;;;;;;5088230;28;20032;-53
2022/09/01 02:25:05;;;;;;;2.85;1.58;;;13.00;99.90;;;;;;5088821;28;20423;-53
2022/09/01 02:27:38;;;;;;;2.10;1.25;;;13.00;99.90;;;;;;5088665;28;20052;-53
2022/09/01 02:30:09;;;;;;;1.63;1.52;;;13.00;99.90;;;;;;5088744;28;20075;-53
2022/09/01 02:32:34;;;;;;;1.90;1.52;;;13.00;99.90;;;;;;5087769;28;20020;-54
2022/09/01 02:35:00;;;;;;;3.25;1.42;;;13.00;99.90;;;;;;5076228;28;20413;-53
2022/09/01 02:37:26;;;;;;;6.13;1.60;;;12.90;99.90;;;;;;5087222;28;20235;-53
2022/09/01 02:39:52;;;;;;;1.80;1.60;;;13.00;99.90;;;;;;5088727;28;20039;-53
2022/09/01 02:42:26;;;;;;;3.50;1.50;;;12.90;99.90;;;;;;5087949;28;20266;-53
2022/09/01 02:44:54;;;;;;;3.97;1.33;;;12.90;99.90;;;;;;5089063;28;20445;-53
2022/09/01 02:47:22;;;;;;;4.53;1.65;;;12.90;99.90;;;;;;5075753;28;20017;-53
2022/09/01 02:49:50;;;;;;;2.17;1.98;;;13.00;99.90;;;;;;5068097;28;20017;-53
2022/09/01 02:52:16;;;;;;;1.88;1.67;;;12.90;99.90;;;;;;5067295;28;20024;-52
2022/09/01 02:54:44;;;;;;;2.17;1.60;;;12.90;99.90;;;;;;5067850;28;20046;-53
2022/09/01 02:57:11;;;;;;;2.78;1.75;;;12.90;99.90;;;;;;5067927;28;20012;-53
2022/09/01 02:59:36;;;;;;;3.17;1.88;;;12.90;99.90;;;;;;5068104;28;20108;-52
2022/09/01 03:02:02;;;;;;;1.80;1.40;;;12.90;99.90;;;;;;5067359;28;20104;-53
2022/09/01 03:04:34;;;;;;;2.85;1.63;;;12.90;99.90;;;;;;5068407;28;20025;-53
2022/09/01 03:07:22;;;;;;;1.92;1.70;;;12.90;99.90;;;;;;5065401;28;20077;-52
2022/09/01 03:09:48;;;;;;;2.17;1.50;;;12.80;99.90;;;;;;5063093;28;20263;-53
2022/09/01 03:12:13;;;;;;;1.67;1.55;;;12.80;99.90;;;;;;5064322;28;20040;-53
2022/09/01 03:14:39;;;;;;;1.95;1.50;;;12.80;99.90;;;;;;5064500;28;20514;-53
2022/09/01 03:17:04;;;;;;;1.98;1.70;;;12.80;99.90;;;;;;5067873;28;20021;-52
2022/09/01 03:19:38;;;;;;;2.53;1.42;;;12.80;99.90;;;;;;5067662;28;20033;-53
2022/09/01 03:22:04;;;;;;;1.70;1.60;;;12.70;99.90;;;;;;5065062;28;20556;-53
2022/09/01 03:24:31;;;;;;;2.35;1.60;;;12.70;99.90;;;;;;5068269;28;20029;-53
2022/09/01 03:26:56;;;;;;;2.50;1.60;;;12.60;99.90;;;;;;5067721;28;20021;-52
2022/09/01 03:29:22;;;;;;;1.98;1.63;;;12.60;99.90;;;;;;5067985;28;20020;-53
2022/09/01 03:31:48;;;;;;;3.03;1.75;;;12.60;99.90;;;;;;5066901;28;20020;-52
2022/09/01 03:34:15;;;;;;;3.28;2.17;;;12.60;99.90;;;;;;5064272;28;20031;-53
2022/09/01 03:36:48;;;;;;;2.67;1.73;;;12.60;99.90;;;;;;5067804;28;20017;-53
2022/09/01 03:39:15;;;;;;;2.33;2.03;;;12.60;99.90;;;;;;5066333;28;20029;-53
2022/09/01 03:41:40;;;;;;;3.03;2.08;;;12.60;99.90;;;;;;5066977;28;20037;-53
2022/09/01 03:44:09;;;;;;;1.90;1.80;;;12.60;99.90;;;;;;5066338;28;20422;-52
2022/09/01 03:46:35;;;;;;;3.38;2.20;;;12.60;99.90;;;;;;5069511;28;20047;-53
2022/09/01 03:49:02;;;;;;;5.28;2.30;;;12.60;99.90;;;;;;5071504;28;20178;-53
2022/09/01 03:51:29;;;;;;;2.97;1.90;;;12.60;99.90;;;;;;5070663;28;20521;-53
2022/09/01 03:53:56;;;;;;;6.03;2.88;;;12.60;99.90;;;;;;5071396;28;20020;-53
2022/09/01 03:56:26;;;;;;;5.53;2.13;;;12.60;99.90;;;;;;5070416;28;20027;-53
2022/09/01 03:58:56;;;;;;;2.80;2.10;;;12.50;99.90;;;;;;5071989;28;20082;-51
2022/09/01 04:01:23;;;;;;;4.90;2.10;;;12.50;99.90;;;;;;5070509;28;20259;-53
2022/09/01 04:03:50;;;;;;;3.58;2.03;;;12.50;99.90;;;;;;5074480;28;20047;-53
2022/09/01 04:06:22;;;;;;;4.15;2.00;;;12.40;99.90;;;;;;5082964;28;20046;-54
2022/09/01 04:08:48;;;;;;;2.10;1.88;;;12.40;99.90;;;;;;5091298;28;20115;-53
2022/09/01 04:11:17;;;;;;;2.08;1.83;;;12.40;99.90;;;;;;5090609;28;20107;-51
2022/09/01 04:13:43;;;;;;;2.92;1.90;;;12.40;99.90;;;;;;5090770;28;20107;-52
2022/09/01 04:19:14;;;;;;;2.80;1.73;;;12.30;99.90;;;;;;5091396;28;20787;-51
2022/09/01 04:21:41;;;;;;;7.20;2.33;;;12.30;99.90;;;;;;5090485;28;20051;-52
2022/09/01 04:24:08;;;;;;;2.92;1.90;;;12.20;99.90;;;;;;5091144;28;20032;-52
2022/09/01 04:26:33;;;;;;;4.68;1.80;;;12.20;99.90;;;;;;5089574;28;20047;-52
2022/09/01 04:28:59;;;;;;;3.53;1.92;;;12.20;99.90;;;;;;5091171;28;20493;-52
2022/09/01 04:31:25;;;;;;;5.75;2.03;;;12.20;99.90;;;;;;5090267;28;20217;-50
2022/09/01 04:33:54;;;;;;;2.75;1.98;;;12.30;99.90;;;;;;5089512;28;20074;-51
2022/09/01 04:36:30;;;;;;;2.63;1.95;;;12.30;99.90;;;;;;5082320;28;20016;-52
2022/09/01 04:38:59;;;;;;;2.20;2.00;;;12.30;99.90;;;;;;5089851;28;20036;-51
2022/09/01 04:41:30;;;;;;;2.67;2.47;;;12.20;99.90;;;;;;5090048;28;20536;-52
2022/09/01 04:43:57;;;;;;;2.88;2.33;;;12.20;99.90;;;;;;5090200;28;20028;-52
2022/09/01 04:46:27;;;;;;;2.95;2.25;;;12.10;99.90;;;;;;5090553;28;20214;-52
2022/09/01 04:48:53;;;;;;;3.72;2.67;;;12.10;99.90;;;;;;5090318;28;20084;-52
2022/09/01 04:51:19;;;;;;;3.13;2.28;;;12.10;99.90;;;;;;5089779;28;20505;-52
2022/09/01 04:53:47;;;;;;;3.67;2.47;;;12.10;99.90;;;;;;5090163;28;20024;-52
2022/09/01 04:56:17;;;;;;;2.55;2.22;;;12.10;99.90;;;;;;5088730;28;20490;-50
2022/09/01 04:58:42;;;;;;;3.75;2.60;;;12.10;99.90;;;;;;5090445;28;20024;-51
2022/09/01 05:01:25;;;;;;;3.75;2.47;;;12.10;99.90;;;;;;5089103;28;20073;-52
2022/09/01 05:04:00;;;;;;;3.58;2.75;;;12.10;99.90;;;;;;5088013;28;20471;-52
2022/09/01 05:06:27;;;;;;;4.65;2.65;;;12.10;99.90;;;;;;5081182;28;20051;-51
2022/09/01 05:08:55;;;;;;;2.53;2.33;;;12.10;99.90;;;;;;5082780;28;20519;-52
2022/09/01 05:11:22;;;;;;;4.15;2.72;;;12.10;99.90;;;;;;5068211;28;20016;-51
2022/09/01 05:13:48;;;;;;;3.30;2.25;;;12.10;99.90;;;;;;5069485;28;20012;-52
2022/09/01 05:16:19;;;;;;;4.15;2.85;;;12.10;99.90;;;;;;5069213;28;20112;-52
2022/09/01 05:18:47;;;;;;;4.82;2.83;;;12.10;99.90;;;;;;5069672;28;20396;-52
2022/09/01 05:21:16;;;;;;;3.95;2.40;;;12.20;99.90;;;;;;5068383;28;20028;-52
2022/09/01 05:23:43;;;;;;;4.05;2.90;;;12.10;99.90;;;;;;5069636;28;20116;-52
2022/09/01 05:26:15;;;;;;;3.60;2.60;;;12.20;99.90;;;;;;5050933;28;20107;-52
2022/09/01 05:28:42;;;;;;;3.75;2.33;;;12.20;99.90;;;;;;5068819;28;20016;-52
2022/09/01 05:31:08;;;;;;;6.50;2.80;;;12.30;99.90;;;;;;5068932;28;20101;-52
2022/09/01 05:33:35;;;;;;;6.68;2.53;;;12.40;99.90;;;;;;5069746;28;20103;-52
2022/09/01 05:36:03;;;;;;;6.00;2.72;;;12.50;99.90;;;;;;5081201;28;20016;-52
2022/09/01 05:38:30;;;;;;;4.07;2.40;;;12.50;99.90;;;;;;5087907;28;20031;-52
2022/09/01 05:40:57;;;;;;;7.88;3.30;;;12.60;99.90;;;;;;5088958;28;20103;-53
2022/09/01 05:43:26;;;;;;;4.15;2.40;;;12.70;99.90;;;;;;5088904;28;20034;-52
2022/09/01 05:45:53;;;;;;;4.32;2.30;;;12.70;99.90;;;;;;5089428;28;20027;-52
2022/09/01 05:48:20;;;;;;;3.35;2.50;;;12.70;99.90;;;;;;5088968;28;20697;-52
2022/09/01 05:50:48;;;;;;;3.75;2.50;;;12.80;99.90;;;;;;5087590;28;20024;-52
2022/09/01 05:53:16;;;;;;;3.30;2.45;;;12.80;99.90;;;;;;5089423;28;20213;-52
2022/09/01 05:55:46;;;;;;;6.47;2.47;;;12.80;99.90;;;;;;5089267;28;20273;-52
2022/09/01 05:58:13;;;;;;;4.72;2.40;;;12.80;99.90;;;;;;5087846;28;20016;-52
2022/09/01 06:00:45;;;;;;;5.93;2.67;;;12.90;99.90;;;;;;5088724;28;20686;-52
2022/09/01 06:03:13;;;;;;;6.40;2.97;;;12.90;99.90;;;;;;5087070;28;20705;-52
2022/09/01 06:05:39;;;;;;;3.95;2.63;;;12.90;99.90;;;;;;5080643;28;20107;-52
2022/09/01 06:08:06;;;;;;;3.63;2.25;;;13.00;99.90;;;;;;5089233;28;20028;-52
2022/09/01 06:10:36;;;;;;;5.80;2.47;;;13.00;99.90;;;;;;5088671;28;20518;-52
2022/09/01 06:13:02;;;;;;;2.92;2.17;;;13.10;99.90;;;;;;5088829;28;20043;-52
2022/09/01 06:15:31;;;;;;;4.03;2.25;;;13.20;99.90;;;;;;5088900;28;20024;-52
2022/09/01 06:17:57;;;;;;;5.85;2.25;;;13.20;99.90;;;;;;5088599;28;20117;-52
2022/09/01 06:20:23;;;;;;;2.85;1.65;;;13.20;99.90;;;;;;5088777;28;20024;-52
2022/09/01 06:22:51;;;;;;;2.65;2.00;;;13.30;99.90;;;;;;5088088;28;20047;-52
2022/09/01 06:25:17;;;;;;;9.95;2.00;;;13.40;99.90;;;;;;5089160;28;20024;-52
2022/09/01 06:27:44;;;;;;;3.03;1.70;;;13.50;99.90;;;;;;5089051;28;20031;-52
2022/09/01 06:30:17;;;;;;;2.67;2.00;;;13.50;99.90;;;;;;5088869;28;20024;-52
2022/09/01 06:32:43;;;;;;;5.07;2.08;;;13.60;99.90;;;;;;5088068;28;20387;-52
2022/09/01 06:35:10;;;;;;;1.85;1.45;;;13.70;99.90;;;;;;5077920;28;20012;-52
2022/09/01 06:37:37;;;;;;;3.90;1.73;;;13.70;99.90;;;;;;5071802;28;20020;-52
2022/09/01 06:40:04;;;;;;;2.30;1.67;;;13.80;99.90;;;;;;5088845;28;20081;-52
2022/09/01 06:42:33;;;;;;;4.18;1.50;;;13.80;99.90;;;;;;5088119;28;20099;-52
2022/09/01 06:45:00;;;;;;;3.75;1.60;;;13.90;99.90;;;;;;5088649;28;20051;-52
2022/09/01 06:47:27;;;;;;;3.20;1.85;;;14.00;99.90;;;;;;5088428;28;20258;-52
2022/09/01 06:49:57;;;;;;;3.90;1.52;;;14.10;99.90;;;;;;5087982;28;20483;-52
2022/09/01 06:52:23;;;;;;;2.55;1.45;;;14.20;99.90;;;;;;5087893;28;20024;-52
2022/09/01 06:54:52;;;;;;;3.95;1.30;;;14.20;99.90;;;;;;5088515;28;20089;-52
2022/09/01 06:57:18;;;;;;;3.35;1.20;;;14.40;99.90;;;;;;5088620;28;20554;-52
2022/09/01 06:59:44;;;;;;;1.30;1.20;;;14.40;99.90;;;;;;5088669;28;20329;-52
2022/09/01 07:02:15;;;;;;;2.95;1.75;;;14.60;99.90;;;;;;5086462;28;20030;-52
2022/09/01 07:04:42;;;;;;;1.90;1.17;;;14.70;99.90;;;;;;5080635;28;20383;-52
2022/09/01 07:07:09;;;;;;;3.53;1.35;;;14.70;99.90;;;;;;5080044;28;20051;-52
2022/09/01 07:09:35;;;;;;;4.03;1.38;;;14.80;99.90;;;;;;5088417;28;20125;-52
2022/09/01 07:12:02;;;;;;;3.55;1.45;;;14.90;99.90;;;;;;5087623;28;20475;-52
2022/09/01 07:14:28;;;;;;;2.47;1.40;;;15.00;99.90;;;;;;5088408;28;20504;-52
2022/09/01 07:16:54;;;;;;;4.15;2.17;;;15.10;99.90;;;;;;5088363;28;20107;-52
2022/09/01 07:19:20;;;;;;;1.80;1.30;;;15.20;99.90;;;;;;5088392;28;20047;-52
2022/09/01 07:21:45;;;;;;;7.10;1.83;;;15.30;99.90;;;;;;5091831;28;20056;-52
2022/09/01 07:24:11;;;;;;;1.92;1.20;;;15.40;99.90;;;;;;5092572;28;20428;-53
2022/09/01 07:26:39;;;;;;;2.05;1.27;;;15.50;99.90;;;;;;5092376;28;20111;-53
2022/09/01 07:29:05;;;;;;;3.85;1.40;;;15.60;99.90;;;;;;5092458;28;20107;-53
2022/09/01 07:31:37;;;;;;;3.80;1.10;;;15.90;99.90;;;;;;5091506;28;20055;-53
2022/09/01 07:34:07;;;;;;;2.58;1.13;;;16.20;99.90;;;;;;5085933;28;20085;-53
2022/09/01 07:36:32;;;;;;;1.73;1.02;;;16.60;99.90;;;;;;5082920;28;20061;-53
2022/09/01 07:39:00;;;;;;;1.58;1.00;;;17.10;99.90;;;;;;5092008;28;20428;-53
2022/09/01 07:41:27;;;;;;;1.27;0.82;;;17.60;99.90;;;;;;5091521;28;20533;-53
2022/09/01 07:43:55;;;;;;;3.45;1.23;;;17.90;99.90;;;;;;5091836;28;20483;-54
2022/09/01 07:46:24;;;;;;;3.85;1.13;;;18.50;99.90;;;;;;5091504;28;20081;-55
2022/09/01 07:48:52;;;;;;;3.28;1.20;;;18.80;99.90;;;;;;5091416;28;20019;-55
2022/09/01 07:51:20;;;;;;;1.88;1.05;;;19.40;99.90;;;;;;5091090;28;20034;-55
2022/09/01 07:53:47;;;;;;;0.85;0.80;;;20.00;98.80;;;;;;5091502;28;20105;-54
2022/09/01 07:56:17;;;;;;;1.95;0.70;;;20.50;95.70;;;;;;5092050;28;20016;-54
2022/09/01 07:58:43;;;;;;;2.08;0.90;;;21.20;94.30;;;;;;5091519;28;20025;-55
2022/09/01 08:01:12;;;;;;;2.05;1.00;;;22.00;91.50;;;;;;5090785;28;20435;-55
2022/09/01 08:03:39;;;;;;;3.35;1.20;;;22.70;88.00;;;;;;5088633;28;20115;-55
2022/09/01 08:06:08;;;;;;;2.08;1.25;;;23.70;83.70;;;;;;5079050;28;20029;-55
2022/09/01 08:08:35;;;;;;;1.02;0.88;;;24.50;79.30;;;;;;5090980;28;20408;-54
2022/09/01 08:11:01;;;;;;;2.08;1.10;;;24.30;79.00;;;;;;5090524;28;20031;-55
2022/09/01 08:13:27;;;;;;;1.60;0.80;;;24.90;79.20;;;;;;5089701;28;20591;-55
2022/09/01 08:15:52;;;;;;;1.33;0.90;;;26.00;75.50;;;;;;5091303;28;20020;-54
2022/09/01 08:18:18;;;;;;;1.00;0.90;;;26.80;72.40;;;;;;5091056;28;20495;-54
2022/09/01 08:20:45;;;;;;;2.03;0.80;;;28.10;67.40;;;;;;5090174;28;20486;-55
2022/09/01 08:23:17;;;;;;;1.65;0.85;;;29.30;62.00;;;;;;5089770;28;20054;-55
2022/09/01 08:25:44;;;;;;;3.15;0.82;;;29.90;60.50;;;;;;5091016;28;20024;-54
2022/09/01 08:28:11;;;;;;;0.93;0.70;;;31.00;57.50;;;;;;5090592;28;20479;-55
2022/09/01 08:30:39;;;;;;;3.00;1.15;;;31.50;55.30;;;;;;5089809;28;20432;-54
2022/09/01 08:33:05;;;;;;;1.25;0.70;;;31.20;54.40;;;;;;5090305;28;20020;-54
2022/09/01 08:35:31;;;;;;;1.90;0.80;;;31.40;54.10;;;;;;5078863;28;20060;-55
2022/09/01 08:37:58;;;;;;;1.00;0.70;;;32.10;52.60;;;;;;5085166;28;20055;-54
2022/09/01 08:40:24;;;;;;;0.80;0.57;;;32.30;51.90;;;;;;5090539;28;20024;-55
2022/09/01 08:43:07;;;;;;;2.25;0.80;;;33.30;50.30;;;;;;5088883;28;20024;-54
2022/09/01 08:45:49;;;;;;;1.95;0.70;;;33.00;50.10;;;;;;5090804;28;20028;-54
2022/09/01 08:48:36;;;;;;;1.95;0.80;;;32.60;49.80;;;;;;5090623;28;20589;-55
2022/09/01 08:51:12;;;;;;;0.75;0.60;;;33.00;49.80;;;;;;5089579;28;20028;-55
2022/09/01 08:53:46;;;;;;;1.52;0.90;;;33.30;48.40;;;;;;5089324;28;20032;-55
2022/09/01 08:56:13;;;;;;;1.38;0.75;;;34.20;49.00;;;;;;5089170;28;20028;-55
2022/09/01 08:58:38;;;;;;;2.33;0.70;;;34.60;47.60;;;;;;5090485;28;20433;-56
2022/09/01 09:01:14;;;;;;;1.30;0.70;;;34.70;48.10;;;;;;5089809;28;20070;-54
2022/09/01 09:04:05;;;;;;;1.05;0.63;;;35.60;45.00;;;;;;5087213;28;20479;-55
2022/09/01 09:06:58;;;;;;;0.60;0.60;;;35.30;45.90;;;;;;5079532;28;20024;-55
2022/09/01 09:09:37;;;;;;;1.75;0.70;;;35.60;46.20;;;;;;5090271;28;20019;-55
2022/09/01 09:12:26;;;;;;;3.03;0.77;;;35.60;44.50;;;;;;5089730;28;20454;-54
2022/09/01 09:15:09;;;;;;;1.63;0.93;;;35.20;45.30;;;;;;5065857;28;20091;-55
2022/09/01 09:17:40;;;;;;;1.60;0.75;;;35.60;45.10;;;;;;5069060;28;20025;-54
2022/09/01 09:20:06;;;;;;;2.83;0.77;;;35.60;45.00;;;;;;5068951;28;20098;-54
2022/09/01 09:22:32;;;;;;;2.78;0.70;;;34.90;45.10;;;;;;5068084;28;20538;-55
2022/09/01 09:25:10;;;;;;;1.98;1.15;;;36.00;44.00;;;;;;5068774;28;20294;-55
2022/09/01 09:27:39;;;;;;;1.38;0.70;;;35.90;43.80;;;;;;5067569;28;20107;-55
2022/09/01 09:30:08;;;;;;;0.73;0.70;;;36.50;42.10;;;;;;5068279;28;20138;-55
2022/09/01 09:32:59;;;;;;;4.15;1.05;;;36.40;43.80;;;;;;5067361;28;20033;-55
2022/09/01 09:35:32;;;;;;;1.20;0.90;;;36.50;43.10;;;;;;5063752;28;20032;-55
2022/09/01 09:38:27;;;;;;;2.47;0.60;;;36.60;43.10;;;;;;5068253;28;20404;-55
2022/09/01 09:40:59;;;;;;;0.80;0.80;;;36.90;42.30;;;;;;5071034;28;20282;-55
2022/09/01 09:43:28;;;;;;;1.65;0.75;;;37.90;41.00;;;;;;5088416;28;20107;-55
2022/09/01 09:46:22;;;;;;;2.95;0.98;;;37.80;42.20;;;;;;5088484;28;20051;-55
2022/09/01 09:49:04;;;;;;;0.93;0.70;;;36.70;41.70;;;;;;5087781;28;20030;-55
2022/09/01 09:51:30;;;;;;;1.77;0.60;;;37.10;42.40;;;;;;5087511;28;20479;-55
2022/09/01 09:54:20;;;;;;;1.58;0.88;;;37.10;41.00;;;;;;5066711;28;20032;-56
2022/09/01 09:56:47;;;;;;;2.40;0.95;;;37.10;41.10;;;;;;5064140;28;20037;-55
2022/09/01 09:59:27;;;;;;;1.25;0.75;;;37.00;41.00;;;;;;5067568;28;20040;-56
2022/09/01 10:01:57;;;;;;;2.03;0.63;;;37.50;41.80;;;;;;5065715;28;20035;-56
2022/09/01 10:04:37;;;;;;;3.70;0.73;;;37.40;40.70;;;;;;5063121;28;20067;-56
2022/09/01 10:07:24;;;;;;;1.88;0.55;;;37.10;42.30;;;;;;5079579;28;20020;-56
2022/09/01 10:09:51;;;;;;;1.52;0.60;;;37.30;41.60;;;;;;5087934;28;20092;-56
2022/09/01 10:12:17;;;;;;;1.13;0.90;;;37.00;41.50;;;;;;5087152;28;20027;-56
2022/09/01 10:15:07;;;;;;;1.75;1.15;;;37.60;41.10;;;;;;5082978;28;20070;-56
2022/09/01 10:17:42;;;;;;;0.95;0.68;;;37.50;40.00;;;;;;5068458;28;20396;-54
2022/09/01 10:20:12;;;;;;;3.15;1.10;;;37.70;38.80;;;;;;5068380;28;20078;-56
2022/09/01 10:22:38;;;;;;;2.38;1.13;;;37.50;39.60;;;;;;5067799;28;20107;-56
2022/09/01 10:25:07;;;;;;;2.42;0.70;;;36.80;39.60;;;;;;5068674;28;20033;-56
2022/09/01 10:27:36;;;;;;;1.13;0.70;;;37.80;39.20;;;;;;5068734;28;20032;-56
2022/09/01 10:30:15;;;;;;;3.08;1.30;;;37.90;39.40;;;;;;5068833;28;20047;-56
2022/09/01 10:32:53;;;;;;;74.43;66.53;;;37.90;39.00;;;;;;5067904;28;20029;-56
2022/09/01 10:35:31;;;;;;;2.15;1.73;;;37.60;37.80;;;;;;5076602;28;20024;-56
2022/09/01 10:38:01;;;;;;;2.15;1.10;;;37.30;39.20;;;;;;5068313;28;20372;-56
2022/09/01 10:40:29;;;;;;;0.95;0.90;;;37.80;37.90;;;;;;5068089;28;20111;-56
2022/09/01 10:42:57;;;;;;;1.30;1.15;;;37.70;38.70;;;;;;5068530;28;20025;-59
2022/09/01 10:45:34;;;;;;;4.60;0.85;;;38.00;37.60;;;;;;5068210;28;20538;-56
2022/09/01 10:48:18;;;;;;;1.70;0.70;;;38.10;36.80;;;;;;5068139;28;20021;-56
2022/09/01 10:50:46;;;;;;;2.25;0.82;;;37.10;38.40;;;;;;5046640;28;20389;-55
2022/09/01 10:53:34;;;;;;;1.65;0.82;;;37.10;38.60;;;;;;5072722;28;20024;-56
2022/09/01 10:56:33;;;;;;;2.40;1.10;;;37.30;38.90;;;;;;5091636;28;20504;-56
2022/09/01 10:59:17;;;;;;;;;;;36.90;39.20;;;;;;5087039;28;20016;-56
2022/09/01 11:01:42;;;;;;;3.22;0.80;;;37.00;39.80;;;;;;5077145;28;19912;-56
2022/09/01 11:04:12;;;;;;;2.45;0.93;;;37.20;38.30;;;;;;5092196;28;20099;-56
2022/09/01 11:06:40;;;;;;;3.42;1.20;;;37.00;37.90;;;;;;5083977;28;20111;-56
2022/09/01 11:09:27;;;;;;;2.70;0.83;;;37.20;39.20;;;;;;5082311;28;20149;-56
2022/09/01 11:12:12;;;;;;;3.42;0.93;;;37.50;36.40;;;;;;5091777;28;20027;-56
2022/09/01 11:14:53;;;;;;;2.45;0.90;;;37.70;38.80;;;;;;5082652;28;20020;-57
2022/09/01 11:17:29;;;;;;;1.75;0.82;;;37.80;37.30;;;;;;5083833;28;20178;-55
2022/09/01 11:20:07;;;;;;;1.35;0.80;;;38.00;37.30;;;;;;5092171;28;20024;-56
2022/09/01 11:22:58;;;;;;;1.47;0.87;;;38.00;38.00;;;;;;5089102;28;20027;-58
2022/09/01 11:25:43;;;;;;;2.33;0.88;;;38.10;37.20;;;;;;5081841;28;20032;-56
2022/09/01 11:28:14;;;;;;;0.85;0.68;;;37.70;38.10;;;;;;5092002;28;20441;-56
2022/09/01 11:30:57;;;;;;;1.20;0.70;;;37.60;36.90;;;;;;5071155;28;20021;-56
2022/09/01 11:34:00;;;;;;;0.75;0.65;;;35.60;37.80;;;;;;5071802;28;20025;-55
2022/09/01 11:36:46;;;;;;;3.55;0.68;;;33.90;41.10;;;;;;5080177;28;20511;-56
2022/09/01 11:39:17;;;;;;;2.95;0.68;;;34.10;40.20;;;;;;5077252;28;20419;-56
2022/09/01 11:41:43;;;;;;;1.23;0.80;;;34.20;40.40;;;;;;5076780;28;20029;-56
2022/09/01 11:44:31;;;;;;;4.07;0.70;;;34.40;40.00;;;;;;5088214;28;20107;-56
2022/09/01 11:47:15;;;;;;;4.22;0.80;;;34.00;39.40;;;;;;5091731;28;20483;-55
2022/09/01 11:49:51;;;;;;;3.33;0.70;;;33.00;40.40;;;;;;5072281;28;20032;-55
2022/09/01 11:52:19;;;;;;;1.15;0.57;;;33.70;40.20;;;;;;5070113;28;20499;-56
2022/09/01 11:54:47;;;;;;;2.63;0.85;;;34.50;39.10;;;;;;5074337;28;20104;-56
2022/09/01 11:57:27;;;;;;;0.98;0.80;;;34.80;39.40;;;;;;5088074;28;20066;-56
2022/09/01 11:59:54;;;;;;;0.73;0.73;;;34.00;38.80;;;;;;5084554;28;20095;-55
2022/09/01 12:02:27;;;;;;;1.02;0.82;;;32.60;39.40;;;;;;5081814;28;20051;-55
2022/09/01 12:04:55;;;;;;;1.35;1.02;;;31.70;42.30;;;;;;5087523;28;20056;-56
2022/09/01 12:07:26;;;;;;;2.75;0.90;;;31.40;41.40;;;;;;5091289;28;20518;-55
2022/09/01 12:09:51;;;;;;;2.65;1.05;;;31.20;42.60;;;;;;5091018;28;20028;-55
2022/09/01 12:12:36;;;;;;;0.60;0.60;;;31.40;41.90;;;;;;5086011;28;20027;-55
2022/09/01 12:15:16;;;;;;;1.50;0.82;;;30.60;41.50;;;;;;5076144;28;20024;-54
2022/09/01 12:17:42;;;;;;;0.98;0.60;;;30.50;42.80;;;;;;5069386;28;20028;-54
2022/09/01 12:20:44;;;;;;;1.13;0.70;;;30.80;44.40;;;;;;5071962;28;20017;-55
2022/09/01 12:23:31;;;;;;;2.58;0.60;;;30.80;42.60;;;;;;5027624;28;20481;-55
2022/09/01 12:26:19;;;;;;;0.93;0.60;;;30.80;43.30;;;;;;5070626;28;20028;-55
2022/09/01 12:28:48;;;;;;;2.75;0.50;;;30.80;44.20;;;;;;5067161;28;20459;-54
2022/09/01 12:31:21;;;;;;;1.52;0.90;;;31.00;43.60;;;;;;5079013;28;20021;-54
2022/09/01 12:33:48;;;;;;;2.88;0.65;;;30.90;43.30;;;;;;5070516;28;20024;-55
2022/09/01 12:36:24;;;;;;;0.90;0.70;;;30.60;42.30;;;;;;5073302;28;20020;-55
2022/09/01 12:38:52;;;;;;;3.75;0.80;;;30.30;43.20;;;;;;5077639;28;20016;-54
2022/09/01 12:41:30;;;;;;;1.23;0.60;;;30.10;43.60;;;;;;5069077;28;20020;-54
2022/09/01 12:43:56;;;;;;;1.65;0.80;;;29.80;43.00;;;;;;5070189;28;20024;-54
2022/09/01 12:46:43;;;;;;;1.45;1.05;;;29.90;44.90;;;;;;5070055;28;20066;-54
2022/09/01 12:49:16;;;;;;;0.75;0.70;;;29.50;42.70;;;;;;5074209;28;20024;-55
2022/09/01 12:51:42;;;;;;;1.98;1.30;;;28.90;43.10;;;;;;5065337;28;20020;-54
2022/09/01 12:54:08;;;;;;;4.63;1.67;;;28.50;44.50;;;;;;5074612;28;20027;-54
2022/09/01 12:56:37;;;;;;;2.80;1.55;;;27.90;45.60;;;;;;5067459;28;20059;-54
2022/09/01 12:59:13;;;;;;;2.50;1.30;;;27.10;45.50;;;;;;5076072;28;20311;-53
2022/09/01 13:01:40;;;;;;;3.22;1.00;;;26.80;47.00;;;;;;5072523;28;20456;-54
2022/09/01 13:04:21;;;;;;;3.63;1.30;;;26.40;46.80;;;;;;5090269;28;20028;-53
2022/09/01 13:06:48;;;;;;;13.93;9.50;;;26.30;47.20;;;;;;5088219;28;20027;-53
2022/09/01 13:09:14;;;;;;;13.35;10.68;;;25.80;47.60;;;;;;5077103;28;20494;-54
2022/09/01 13:11:41;;;;;;;2.78;1.70;;;25.60;47.70;;;;;;5089822;28;20360;-53